Mcbride, Canada
Current Conditions -  °F | °C
As of 5:26 PM on Saturday 25 Oct 2014 (Local Time) from CYQZ Reporting Station
Unknown Precip Unknown Precip  
Wind Chill:   Ceiling: 1000
Heat Index:   Visibility: 9mi
Dew Point:   Wind: 5mph
Humidity: 100%   Direction: 330°NNW
Pressure: 29.44"   Gusts: NA
Location:  53.3°N, 120.17°W
Report Text: CYQZ 260026Z AUTO 33004KT 9SM -UP OVC010 02/02 A2944 RMK SLP991
Loading
Personal Weather Stations






























Interactive Weather Map
Tropical Storm Tracking
New forecast layout! Learn more

10-Day Weather Forecast

Advertisements
Track Severe Weather on mobile